sensor_id;sensor_type;location;lat;lon;timestamp;pressure;altitude;pressure_sealevel;temperature;humidity
62038;BME280;47991;42.974;12.082;2023-09-07T00:01:35;98011.58;;;16.07;64.28
62038;BME280;47991;42.974;12.082;2023-09-07T00:04:03;98011.23;;;15.96;64.61
62038;BME280;47991;42.974;12.082;2023-09-07T00:06:33;98009.95;;;15.84;64.92
62038;BME280;47991;42.974;12.082;2023-09-07T00:09:03;98012.25;;;15.81;64.33
62038;BME280;47991;42.974;12.082;2023-09-07T00:11:32;98010.23;;;15.83;64.69
62038;BME280;47991;42.974;12.082;2023-09-07T00:13:59;98009.60;;;15.77;65.19
62038;BME280;47991;42.974;12.082;2023-09-07T00:16:26;98008.16;;;15.68;65.66
62038;BME280;47991;42.974;12.082;2023-09-07T00:18:53;98005.85;;;15.68;65.76
62038;BME280;47991;42.974;12.082;2023-09-07T00:21:19;98003.55;;;15.71;66.47
62038;BME280;47991;42.974;12.082;2023-09-07T00:23:46;98004.14;;;15.75;66.12
62038;BME280;47991;42.974;12.082;2023-09-07T00:26:13;98000.11;;;15.85;65.96
62038;BME280;47991;42.974;12.082;2023-09-07T00:28:40;98001.23;;;15.92;65.78
62038;BME280;47991;42.974;12.082;2023-09-07T00:31:07;98001.59;;;15.96;66.21
62038;BME280;47991;42.974;12.082;2023-09-07T00:33:34;97999.48;;;15.99;66.03
62038;BME280;47991;42.974;12.082;2023-09-07T00:36:02;98000.60;;;16.05;66.06
62038;BME280;47991;42.974;12.082;2023-09-07T00:38:29;98002.48;;;16.07;66.00
62038;BME280;47991;42.974;12.082;2023-09-07T00:40:56;97997.98;;;16.08;66.22
62038;BME280;47991;42.974;12.082;2023-09-07T00:43:23;97994.35;;;16.13;66.31
62038;BME280;47991;42.974;12.082;2023-09-07T00:45:50;97996.15;;;16.14;66.80
62038;BME280;47991;42.974;12.082;2023-09-07T00:48:17;97998.00;;;16.16;66.94
62038;BME280;47991;42.974;12.082;2023-09-07T00:50:44;97993.41;;;16.18;66.72
62038;BME280;47991;42.974;12.082;2023-09-07T00:53:11;97994.83;;;16.22;66.74
62038;BME280;47991;42.974;12.082;2023-09-07T00:55:38;97992.62;;;16.27;66.56
62038;BME280;47991;42.974;12.082;2023-09-07T00:58:05;97994.97;;;16.30;66.39
62038;BME280;47991;42.974;12.082;2023-09-07T01:00:34;97990.79;;;16.25;66.38
62038;BME280;47991;42.974;12.082;2023-09-07T01:03:01;97990.05;;;16.14;66.87
62038;BME280;47991;42.974;12.082;2023-09-07T01:05:46;97989.33;;;16.02;67.25
62038;BME280;47991;42.974;12.082;2023-09-07T01:08:23;97991.48;;;15.91;67.63
62038;BME280;47991;42.974;12.082;2023-09-07T01:10:50;97988.49;;;15.82;67.90
62038;BME280;47991;42.974;12.082;2023-09-07T01:13:18;97988.08;;;15.75;68.74
62038;BME280;47991;42.974;12.082;2023-09-07T01:15:46;97985.48;;;15.73;69.57
62038;BME280;47991;42.974;12.082;2023-09-07T01:18:15;97984.96;;;15.78;68.82
62038;BME280;47991;42.974;12.082;2023-09-07T01:20:44;97985.38;;;15.84;68.31
62038;BME280;47991;42.974;12.082;2023-09-07T01:23:11;97983.98;;;15.79;68.12
62038;BME280;47991;42.974;12.082;2023-09-07T01:25:40;97980.41;;;15.71;68.41
62038;BME280;47991;42.974;12.082;2023-09-07T01:28:07;97977.48;;;15.64;68.79
62038;BME280;47991;42.974;12.082;2023-09-07T01:30:35;97978.91;;;15.61;69.25
62038;BME280;47991;42.974;12.082;2023-09-07T01:33:04;97977.59;;;15.63;69.19
62038;BME280;47991;42.974;12.082;2023-09-07T01:35:33;97974.54;;;15.67;68.89
62038;BME280;47991;42.974;12.082;2023-09-07T01:38:00;97978.36;;;15.65;69.17
62038;BME280;47991;42.974;12.082;2023-09-07T01:40:27;97976.88;;;15.66;69.26
62038;BME280;47991;42.974;12.082;2023-09-07T01:42:54;97976.29;;;15.71;69.02
62038;BME280;47991;42.974;12.082;2023-09-07T01:45:21;97979.34;;;15.76;68.73
62038;BME280;47991;42.974;12.082;2023-09-07T01:47:48;97976.91;;;15.74;68.45
62038;BME280;47991;42.974;12.082;2023-09-07T01:50:15;97977.90;;;15.67;68.80
62038;BME280;47991;42.974;12.082;2023-09-07T01:52:42;97976.42;;;15.69;69.06
62038;BME280;47991;42.974;12.082;2023-09-07T01:55:09;97977.95;;;15.70;68.93
62038;BME280;47991;42.974;12.082;2023-09-07T01:57:35;97980.69;;;15.69;69.02
62038;BME280;47991;42.974;12.082;2023-09-07T02:00:02;97980.56;;;15.64;68.99
62038;BME280;47991;42.974;12.082;2023-09-07T02:02:31;97979.41;;;15.54;69.39
62038;BME280;47991;42.974;12.082;2023-09-07T02:04:59;97980.20;;;15.48;69.34
62038;BME280;47991;42.974;12.082;2023-09-07T02:07:26;97980.91;;;15.48;69.63
62038;BME280;47991;42.974;12.082;2023-09-07T02:09:53;97983.70;;;15.46;69.62
62038;BME280;47991;42.974;12.082;2023-09-07T02:12:19;97983.25;;;15.51;69.30
62038;BME280;47991;42.974;12.082;2023-09-07T02:14:47;97980.35;;;15.52;69.55
62038;BME280;47991;42.974;12.082;2023-09-07T02:17:14;97981.54;;;15.50;69.62
62038;BME280;47991;42.974;12.082;2023-09-07T02:19:44;97981.41;;;15.49;69.60
62038;BME280;47991;42.974;12.082;2023-09-07T02:22:11;97981.08;;;15.44;69.74
62038;BME280;47991;42.974;12.082;2023-09-07T02:24:38;97987.46;;;15.37;70.39
62038;BME280;47991;42.974;12.082;2023-09-07T02:27:05;97987.48;;;15.32;70.81
62038;BME280;47991;42.974;12.082;2023-09-07T02:29:32;97984.44;;;15.29;71.46
62038;BME280;47991;42.974;12.082;2023-09-07T02:31:58;97980.23;;;15.27;71.44
62038;BME280;47991;42.974;12.082;2023-09-07T02:34:25;97981.52;;;15.30;71.98
62038;BME280;47991;42.974;12.082;2023-09-07T02:36:52;97979.23;;;15.33;71.70
62038;BME280;47991;42.974;12.082;2023-09-07T02:39:19;97974.66;;;15.37;71.70
62038;BME280;47991;42.974;12.082;2023-09-07T02:41:46;97972.39;;;15.39;71.62
62038;BME280;47991;42.974;12.082;2023-09-07T02:44:13;97972.08;;;15.42;71.49
62038;BME280;47991;42.974;12.082;2023-09-07T02:46:40;97970.89;;;15.37;71.86
62038;BME280;47991;42.974;12.082;2023-09-07T02:49:06;97971.10;;;15.40;71.83
62038;BME280;47991;42.974;12.082;2023-09-07T02:51:33;97976.33;;;15.43;71.97
62038;BME280;47991;42.974;12.082;2023-09-07T02:54:01;97975.27;;;15.51;71.47
62038;BME280;47991;42.974;12.082;2023-09-07T02:56:29;97978.23;;;15.52;71.49
62038;BME280;47991;42.974;12.082;2023-09-07T02:58:55;97975.80;;;15.55;71.23
62038;BME280;47991;42.974;12.082;2023-09-07T03:01:23;97981.46;;;15.60;70.98
62038;BME280;47991;42.974;12.082;2023-09-07T03:03:50;97984.27;;;15.60;70.89
62038;BME280;47991;42.974;12.082;2023-09-07T03:06:17;97977.46;;;15.54;71.02
62038;BME280;47991;42.974;12.082;2023-09-07T03:08:44;97975.60;;;15.51;71.15
62038;BME280;47991;42.974;12.082;2023-09-07T03:11:11;97977.02;;;15.56;70.90
62038;BME280;47991;42.974;12.082;2023-09-07T03:13:38;97977.63;;;15.54;70.62
62038;BME280;47991;42.974;12.082;2023-09-07T03:16:05;97978.42;;;15.48;70.64
62038;BME280;47991;42.974;12.082;2023-09-07T03:18:32;97975.95;;;15.47;70.64
62038;BME280;47991;42.974;12.082;2023-09-07T03:21:01;97975.93;;;15.48;70.46
62038;BME280;47991;42.974;12.082;2023-09-07T03:23:29;97976.92;;;15.49;70.73
62038;BME280;47991;42.974;12.082;2023-09-07T03:25:57;97978.55;;;15.53;70.57
62038;BME280;47991;42.974;12.082;2023-09-07T03:28:25;97979.05;;;15.58;70.73
62038;BME280;47991;42.974;12.082;2023-09-07T03:30:53;97977.45;;;15.54;70.96
62038;BME280;47991;42.974;12.082;2023-09-07T03:33:20;97974.53;;;15.51;71.02
62038;BME280;47991;42.974;12.082;2023-09-07T03:35:47;97973.42;;;15.52;71.22
62038;BME280;47991;42.974;12.082;2023-09-07T03:38:14;97972.92;;;15.51;70.95
62038;BME280;47991;42.974;12.082;2023-09-07T03:40:41;97968.80;;;15.48;71.15
62038;BME280;47991;42.974;12.082;2023-09-07T03:43:08;97969.59;;;15.42;71.16
62038;BME280;47991;42.974;12.082;2023-09-07T03:45:35;97974.00;;;15.39;71.00
62038;BME280;47991;42.974;12.082;2023-09-07T03:48:02;97969.79;;;15.38;71.23
62038;BME280;47991;42.974;12.082;2023-09-07T03:50:29;97969.31;;;15.36;71.13
62038;BME280;47991;42.974;12.082;2023-09-07T03:52:56;97972.05;;;15.35;71.04
62038;BME280;47991;42.974;12.082;2023-09-07T03:55:23;97974.61;;;15.34;71.11
62038;BME280;47991;42.974;12.082;2023-09-07T03:57:50;97968.17;;;15.34;71.11
62038;BME280;47991;42.974;12.082;2023-09-07T04:00:17;97972.13;;;15.33;71.28
62038;BME280;47991;42.974;12.082;2023-09-07T04:02:45;97965.88;;;15.34;71.49
62038;BME280;47991;42.974;12.082;2023-09-07T04:05:12;97967.48;;;15.33;71.55
62038;BME280;47991;42.974;12.082;2023-09-07T04:07:39;97965.98;;;15.35;71.71
62038;BME280;47991;42.974;12.082;2023-09-07T04:10:06;97965.87;;;15.38;71.42
62038;BME280;47991;42.974;12.082;2023-09-07T04:12:33;97967.23;;;15.43;71.34
62038;BME280;47991;42.974;12.082;2023-09-07T04:15:03;97969.56;;;15.47;71.33
62038;BME280;47991;42.974;12.082;2023-09-07T04:17:30;97972.98;;;15.54;71.10
62038;BME280;47991;42.974;12.082;2023-09-07T04:19:59;97970.38;;;15.56;70.84
62038;BME280;47991;42.974;12.082;2023-09-07T04:22:25;97969.95;;;15.50;70.73
62038;BME280;47991;42.974;12.082;2023-09-07T04:24:52;97971.72;;;15.46;70.70
62038;BME280;47991;42.974;12.082;2023-09-07T04:27:19;97976.80;;;15.44;70.66
62038;BME280;47991;42.974;12.082;2023-09-07T04:29:46;97974.70;;;15.35;70.89
62038;BME280;47991;42.974;12.082;2023-09-07T04:32:13;97976.08;;;15.32;70.98
62038;BME280;47991;42.974;12.082;2023-09-07T04:34:39;97973.71;;;15.34;71.36
62038;BME280;47991;42.974;12.082;2023-09-07T04:37:06;97974.33;;;15.32;71.38
62038;BME280;47991;42.974;12.082;2023-09-07T04:39:33;97977.94;;;15.27;71.87
62038;BME280;47991;42.974;12.082;2023-09-07T04:42:00;97975.54;;;15.25;72.05
62038;BME280;47991;42.974;12.082;2023-09-07T04:44:26;97975.05;;;15.24;71.98
62038;BME280;47991;42.974;12.082;2023-09-07T04:46:55;97981.51;;;15.26;71.88
62038;BME280;47991;42.974;12.082;2023-09-07T04:49:25;97985.03;;;15.27;71.86
62038;BME280;47991;42.974;12.082;2023-09-07T04:51:53;97986.05;;;15.20;72.22
62038;BME280;47991;42.974;12.082;2023-09-07T04:54:21;97989.66;;;15.15;72.89
62038;BME280;47991;42.974;12.082;2023-09-07T04:56:48;97994.31;;;15.19;72.57
62038;BME280;47991;42.974;12.082;2023-09-07T04:59:14;97995.73;;;15.27;72.70
62038;BME280;47991;42.974;12.082;2023-09-07T05:01:41;97990.48;;;15.53;72.68
62038;BME280;47991;42.974;12.082;2023-09-07T05:04:08;97993.36;;;16.19;71.69
62038;BME280;47991;42.974;12.082;2023-09-07T05:06:35;97991.55;;;16.90;70.47
62038;BME280;47991;42.974;12.082;2023-09-07T05:09:04;97987.07;;;17.66;68.63
62038;BME280;47991;42.974;12.082;2023-09-07T05:11:30;97985.30;;;18.45;66.67
62038;BME280;47991;42.974;12.082;2023-09-07T05:14:01;97984.17;;;19.20;64.21
62038;BME280;47991;42.974;12.082;2023-09-07T05:16:28;97975.86;;;19.80;61.88
62038;BME280;47991;42.974;12.082;2023-09-07T05:18:55;97980.90;;;20.23;61.17
62038;BME280;47991;42.974;12.082;2023-09-07T05:21:22;97980.03;;;20.56;58.58
62038;BME280;47991;42.974;12.082;2023-09-07T05:23:49;97977.45;;;21.14;58.27
62038;BME280;47991;42.974;12.082;2023-09-07T05:26:21;97968.59;;;21.65;56.30
62038;BME280;47991;42.974;12.082;2023-09-07T05:28:48;97976.27;;;22.24;55.73
62038;BME280;47991;42.974;12.082;2023-09-07T05:31:15;97975.75;;;23.09;53.98
62038;BME280;47991;42.974;12.082;2023-09-07T05:33:42;97972.03;;;23.90;52.09
62038;BME280;47991;42.974;12.082;2023-09-07T05:36:09;97979.63;;;24.64;50.27
62038;BME280;47991;42.974;12.082;2023-09-07T05:38:36;97976.57;;;25.29;48.67
62038;BME280;47991;42.974;12.082;2023-09-07T05:41:03;97971.14;;;25.94;47.27
62038;BME280;47991;42.974;12.082;2023-09-07T05:43:30;97971.80;;;26.70;45.32
62038;BME280;47991;42.974;12.082;2023-09-07T05:45:57;97970.65;;;27.36;44.41
62038;BME280;47991;42.974;12.082;2023-09-07T05:48:24;97967.09;;;27.97;42.70
62038;BME280;47991;42.974;12.082;2023-09-07T05:50:50;97972.63;;;28.58;40.88
62038;BME280;47991;42.974;12.082;2023-09-07T05:53:21;97973.69;;;29.09;40.27
62038;BME280;47991;42.974;12.082;2023-09-07T05:55:48;97972.92;;;28.70;40.05
62038;BME280;47991;42.974;12.082;2023-09-07T05:58:15;97969.27;;;28.29;41.16
62038;BME280;47991;42.974;12.082;2023-09-07T06:00:42;97974.58;;;28.21;41.75
62038;BME280;47991;42.974;12.082;2023-09-07T06:03:09;97972.17;;;28.07;42.10
62038;BME280;47991;42.974;12.082;2023-09-07T06:05:37;97977.31;;;27.89;41.90
62038;BME280;47991;42.974;12.082;2023-09-07T06:08:05;97980.08;;;27.96;42.33
62038;BME280;47991;42.974;12.082;2023-09-07T06:10:35;97979.45;;;28.50;41.49
62038;BME280;47991;42.974;12.082;2023-09-07T06:13:02;97982.25;;;28.93;42.10
62038;BME280;47991;42.974;12.082;2023-09-07T06:15:29;97977.14;;;28.99;42.13
62038;BME280;47991;42.974;12.082;2023-09-07T06:17:56;97983.33;;;27.92;42.90
62038;BME280;47991;42.974;12.082;2023-09-07T06:20:23;97988.35;;;27.37;44.78
62038;BME280;47991;42.974;12.082;2023-09-07T06:22:50;97988.37;;;27.33;45.23
62038;BME280;47991;42.974;12.082;2023-09-07T06:25:17;97986.23;;;28.10;43.48
62038;BME280;47991;42.974;12.082;2023-09-07T06:27:43;97988.66;;;28.93;41.63
62038;BME280;47991;42.974;12.082;2023-09-07T06:30:10;97988.52;;;28.77;42.60
62038;BME280;47991;42.974;12.082;2023-09-07T06:32:37;97990.89;;;28.43;43.42
62038;BME280;47991;42.974;12.082;2023-09-07T06:35:05;97991.02;;;28.41;43.31
62038;BME280;47991;42.974;12.082;2023-09-07T06:37:32;97995.36;;;28.62;43.42
62038;BME280;47991;42.974;12.082;2023-09-07T06:39:59;97996.52;;;28.72;43.12
62038;BME280;47991;42.974;12.082;2023-09-07T06:42:26;97994.86;;;29.84;41.15
62038;BME280;47991;42.974;12.082;2023-09-07T06:44:53;97994.30;;;30.59;39.95
62038;BME280;47991;42.974;12.082;2023-09-07T06:47:19;97994.54;;;31.14;38.22
62038;BME280;47991;42.974;12.082;2023-09-07T06:49:46;97992.96;;;32.04;37.65
62038;BME280;47991;42.974;12.082;2023-09-07T06:52:13;97993.45;;;32.74;37.12
62038;BME280;47991;42.974;12.082;2023-09-07T06:54:41;97994.95;;;32.58;35.99
62038;BME280;47991;42.974;12.082;2023-09-07T06:57:08;97996.82;;;32.22;37.08
62038;BME280;47991;42.974;12.082;2023-09-07T06:59:35;97997.98;;;31.16;39.27
62038;BME280;47991;42.974;12.082;2023-09-07T07:02:02;97999.82;;;30.10;40.44
62038;BME280;47991;42.974;12.082;2023-09-07T07:04:31;98005.19;;;29.00;42.19
62038;BME280;47991;42.974;12.082;2023-09-07T07:06:58;98003.11;;;28.08;43.62
62038;BME280;47991;42.974;12.082;2023-09-07T07:09:27;98004.50;;;27.39;45.09
62038;BME280;47991;42.974;12.082;2023-09-07T07:11:55;98007.94;;;26.86;46.68
62038;BME280;47991;42.974;12.082;2023-09-07T07:14:22;98012.03;;;26.57;47.20
62038;BME280;47991;42.974;12.082;2023-09-07T07:16:49;98013.04;;;26.02;48.35
62038;BME280;47991;42.974;12.082;2023-09-07T07:19:15;98011.77;;;25.96;48.15
62038;BME280;47991;42.974;12.082;2023-09-07T07:21:42;98013.63;;;25.85;49.01
62038;BME280;47991;42.974;12.082;2023-09-07T07:24:09;98017.59;;;25.47;49.93
62038;BME280;47991;42.974;12.082;2023-09-07T07:26:36;98016.23;;;25.27;50.17
62038;BME280;47991;42.974;12.082;2023-09-07T07:29:03;98020.19;;;25.20;50.38
62038;BME280;47991;42.974;12.082;2023-09-07T07:31:29;98015.70;;;25.44;50.23
62038;BME280;47991;42.974;12.082;2023-09-07T07:33:56;98015.89;;;25.29;49.92
62038;BME280;47991;42.974;12.082;2023-09-07T07:36:23;98017.59;;;25.17;50.14
62038;BME280;47991;42.974;12.082;2023-09-07T07:38:50;98013.15;;;24.92;51.21
62038;BME280;47991;42.974;12.082;2023-09-07T07:41:17;98014.38;;;24.86;51.08
62038;BME280;47991;42.974;12.082;2023-09-07T07:43:44;98017.39;;;24.76;51.49
62038;BME280;47991;42.974;12.082;2023-09-07T07:46:11;98017.77;;;24.80;51.50
62038;BME280;47991;42.974;12.082;2023-09-07T07:48:38;98019.73;;;24.89;50.93
62038;BME280;47991;42.974;12.082;2023-09-07T07:51:05;98018.16;;;24.84;50.87
62038;BME280;47991;42.974;12.082;2023-09-07T07:53:32;98016.44;;;24.89;49.98
62038;BME280;47991;42.974;12.082;2023-09-07T07:55:59;98016.50;;;24.99;49.55
62038;BME280;47991;42.974;12.082;2023-09-07T07:58:26;98014.89;;;24.93;49.02
62038;BME280;47991;42.974;12.082;2023-09-07T08:00:53;98018.07;;;24.91;49.21
62038;BME280;47991;42.974;12.082;2023-09-07T08:03:20;98016.57;;;24.99;49.66
62038;BME280;47991;42.974;12.082;2023-09-07T08:05:47;98020.58;;;25.05;49.51
62038;BME280;47991;42.974;12.082;2023-09-07T08:08:14;98020.33;;;25.14;48.90
62038;BME280;47991;42.974;12.082;2023-09-07T08:10:41;98016.73;;;25.10;49.30
62038;BME280;47991;42.974;12.082;2023-09-07T08:13:08;98017.64;;;25.25;49.32
62038;BME280;47991;42.974;12.082;2023-09-07T08:15:35;98013.75;;;25.37;48.78
62038;BME280;47991;42.974;12.082;2023-09-07T08:18:03;98015.00;;;25.50;48.76
62038;BME280;47991;42.974;12.082;2023-09-07T08:20:32;98011.84;;;25.57;48.12
62038;BME280;47991;42.974;12.082;2023-09-07T08:22:59;98007.34;;;25.57;47.75
62038;BME280;47991;42.974;12.082;2023-09-07T08:25:26;98006.92;;;25.51;47.41
62038;BME280;47991;42.974;12.082;2023-09-07T08:27:54;98004.67;;;25.52;47.35
62038;BME280;47991;42.974;12.082;2023-09-07T08:30:24;98002.45;;;25.49;47.05
62038;BME280;47991;42.974;12.082;2023-09-07T08:32:52;97999.75;;;25.48;47.45
62038;BME280;47991;42.974;12.082;2023-09-07T08:35:19;98001.48;;;25.53;47.66
62038;BME280;47991;42.974;12.082;2023-09-07T08:37:46;97996.25;;;25.66;47.51
62038;BME280;47991;42.974;12.082;2023-09-07T08:40:14;97995.54;;;25.80;47.02
62038;BME280;47991;42.974;12.082;2023-09-07T08:42:43;98000.09;;;25.99;46.69
62038;BME280;47991;42.974;12.082;2023-09-07T08:45:13;97998.80;;;26.00;46.18
62038;BME280;47991;42.974;12.082;2023-09-07T08:47:43;97997.91;;;25.91;46.52
62038;BME280;47991;42.974;12.082;2023-09-07T08:50:12;97996.11;;;26.03;45.64
62038;BME280;47991;42.974;12.082;2023-09-07T08:52:40;97992.48;;;26.14;46.04
62038;BME280;47991;42.974;12.082;2023-09-07T08:55:10;97992.00;;;26.07;45.40
62038;BME280;47991;42.974;12.082;2023-09-07T08:57:37;97988.95;;;26.25;44.80
62038;BME280;47991;42.974;12.082;2023-09-07T09:00:06;97983.81;;;26.15;44.84
62038;BME280;47991;42.974;12.082;2023-09-07T09:02:42;97984.98;;;26.06;44.59
62038;BME280;47991;42.974;12.082;2023-09-07T09:05:14;97980.80;;;26.16;43.86
62038;BME280;47991;42.974;12.082;2023-09-07T09:07:48;97980.23;;;26.37;43.58
62038;BME280;47991;42.974;12.082;2023-09-07T09:10:17;97979.77;;;26.36;43.37
62038;BME280;47991;42.974;12.082;2023-09-07T09:12:45;97974.69;;;26.53;43.48
62038;BME280;47991;42.974;12.082;2023-09-07T09:15:14;97978.65;;;26.85;42.95
62038;BME280;47991;42.974;12.082;2023-09-07T09:17:41;97976.83;;;26.95;42.19
62038;BME280;47991;42.974;12.082;2023-09-07T09:20:20;97972.71;;;26.91;42.46
62038;BME280;47991;42.974;12.082;2023-09-07T09:22:53;97963.65;;;26.72;41.99
62038;BME280;47991;42.974;12.082;2023-09-07T09:25:21;97967.65;;;26.64;42.19
62038;BME280;47991;42.974;12.082;2023-09-07T09:27:48;97966.67;;;26.65;42.23
62038;BME280;47991;42.974;12.082;2023-09-07T09:30:15;97964.15;;;26.95;42.48
62038;BME280;47991;42.974;12.082;2023-09-07T09:32:43;97960.63;;;27.29;41.85
62038;BME280;47991;42.974;12.082;2023-09-07T09:35:10;97953.91;;;27.19;41.28
62038;BME280;47991;42.974;12.082;2023-09-07T09:37:47;97955.45;;;27.08;41.09
62038;BME280;47991;42.974;12.082;2023-09-07T09:40:18;97950.17;;;27.07;41.17
62038;BME280;47991;42.974;12.082;2023-09-07T09:42:45;97949.77;;;26.89;41.60
62038;BME280;47991;42.974;12.082;2023-09-07T09:45:12;97948.91;;;27.40;41.00
62038;BME280;47991;42.974;12.082;2023-09-07T09:47:41;97946.06;;;27.70;39.91
62038;BME280;47991;42.974;12.082;2023-09-07T09:50:10;97948.95;;;27.79;39.89
62038;BME280;47991;42.974;12.082;2023-09-07T09:52:38;97951.69;;;28.10;40.07
62038;BME280;47991;42.974;12.082;2023-09-07T09:55:06;97955.33;;;28.38;39.53
62038;BME280;47991;42.974;12.082;2023-09-07T09:57:35;97952.23;;;28.45;39.24
62038;BME280;47991;42.974;12.082;2023-09-07T10:00:04;97948.09;;;28.67;39.49
62038;BME280;47991;42.974;12.082;2023-09-07T10:03:12;97947.54;;;28.89;38.07
62038;BME280;47991;42.974;12.082;2023-09-07T10:05:39;97944.67;;;28.61;37.81
62038;BME280;47991;42.974;12.082;2023-09-07T10:08:12;97948.01;;;28.55;37.70
62038;BME280;47991;42.974;12.082;2023-09-07T10:10:41;97944.31;;;28.33;37.89
62038;BME280;47991;42.974;12.082;2023-09-07T10:13:15;97937.14;;;28.28;38.31
62038;BME280;47991;42.974;12.082;2023-09-07T10:15:47;97932.70;;;28.33;38.02
62038;BME280;47991;42.974;12.082;2023-09-07T10:18:15;97934.90;;;28.55;37.89
62038;BME280;47991;42.974;12.082;2023-09-07T10:20:59;97932.42;;;28.58;37.72
62038;BME280;47991;42.974;12.082;2023-09-07T10:26:18;97922.86;;;27.75;39.18
62038;BME280;47991;42.974;12.082;2023-09-07T10:28:58;97918.34;;;28.07;38.72
62038;BME280;47991;42.974;12.082;2023-09-07T10:31:27;97919.65;;;28.38;38.58
62038;BME280;47991;42.974;12.082;2023-09-07T10:33:54;97918.11;;;28.70;37.58
62038;BME280;47991;42.974;12.082;2023-09-07T10:36:22;97921.83;;;28.75;37.34
62038;BME280;47991;42.974;12.082;2023-09-07T10:38:51;97922.38;;;28.62;37.54
62038;BME280;47991;42.974;12.082;2023-09-07T10:41:20;97919.59;;;28.59;37.12
62038;BME280;47991;42.974;12.082;2023-09-07T10:43:53;97923.85;;;28.71;37.62
62038;BME280;47991;42.974;12.082;2023-09-07T10:46:22;97917.26;;;29.02;37.31
62038;BME280;47991;42.974;12.082;2023-09-07T10:48:50;97919.23;;;29.19;36.93
62038;BME280;47991;42.974;12.082;2023-09-07T10:51:19;97912.31;;;29.28;37.00
62038;BME280;47991;42.974;12.082;2023-09-07T10:53:46;97907.00;;;29.30;36.54
62038;BME280;47991;42.974;12.082;2023-09-07T10:56:13;97900.88;;;29.45;36.70
62038;BME280;47991;42.974;12.082;2023-09-07T10:58:41;97899.92;;;29.29;36.59
62038;BME280;47991;42.974;12.082;2023-09-07T11:01:11;97900.06;;;29.37;36.44
62038;BME280;47991;42.974;12.082;2023-09-07T11:03:38;97903.08;;;29.43;36.39
62038;BME280;47991;42.974;12.082;2023-09-07T11:06:10;97898.77;;;29.58;36.30
62038;BME280;47991;42.974;12.082;2023-09-07T11:08:39;97889.80;;;29.92;35.99
62038;BME280;47991;42.974;12.082;2023-09-07T11:11:05;97896.16;;;29.76;35.17
62038;BME280;47991;42.974;12.082;2023-09-07T11:13:33;97903.11;;;29.14;35.65
62038;BME280;47991;42.974;12.082;2023-09-07T11:16:00;97900.55;;;28.93;35.87
62038;BME280;47991;42.974;12.082;2023-09-07T11:18:27;97894.95;;;28.94;35.76
62038;BME280;47991;42.974;12.082;2023-09-07T11:20:56;97891.48;;;29.16;36.27
62038;BME280;47991;42.974;12.082;2023-09-07T11:23:23;97890.15;;;29.36;36.10
62038;BME280;47991;42.974;12.082;2023-09-07T11:25:51;97885.34;;;29.53;36.28
62038;BME280;47991;42.974;12.082;2023-09-07T11:28:19;97882.58;;;29.42;35.66
62038;BME280;47991;42.974;12.082;2023-09-07T11:30:53;97874.48;;;29.57;35.42
62038;BME280;47991;42.974;12.082;2023-09-07T11:33:23;97877.45;;;29.58;35.66
62038;BME280;47991;42.974;12.082;2023-09-07T11:35:52;97876.05;;;29.77;35.01
62038;BME280;47991;42.974;12.082;2023-09-07T11:38:21;97875.52;;;29.40;34.28
62038;BME280;47991;42.974;12.082;2023-09-07T11:40:48;97878.67;;;29.29;34.22
62038;BME280;47991;42.974;12.082;2023-09-07T11:43:17;97879.17;;;29.34;33.90
62038;BME280;47991;42.974;12.082;2023-09-07T11:45:49;97873.31;;;29.12;33.41
62038;BME280;47991;42.974;12.082;2023-09-07T11:48:16;97872.61;;;29.13;33.54
62038;BME280;47991;42.974;12.082;2023-09-07T11:50:43;97869.84;;;29.12;33.28
62038;BME280;47991;42.974;12.082;2023-09-07T11:53:11;97869.20;;;28.99;33.73
62038;BME280;47991;42.974;12.082;2023-09-07T11:55:38;97863.70;;;28.90;34.37
62038;BME280;47991;42.974;12.082;2023-09-07T11:58:06;97861.66;;;29.10;34.32
62038;BME280;47991;42.974;12.082;2023-09-07T12:00:33;97867.19;;;29.02;34.62
62038;BME280;47991;42.974;12.082;2023-09-07T12:03:00;97864.52;;;29.20;34.68
62038;BME280;47991;42.974;12.082;2023-09-07T12:05:27;97863.48;;;29.35;34.29
62038;BME280;47991;42.974;12.082;2023-09-07T12:07:55;97857.80;;;29.12;34.02
62038;BME280;47991;42.974;12.082;2023-09-07T12:10:21;97857.56;;;29.22;34.17
62038;BME280;47991;42.974;12.082;2023-09-07T12:12:48;97857.75;;;29.36;33.70
62038;BME280;47991;42.974;12.082;2023-09-07T12:15:15;97854.22;;;29.19;33.78
62038;BME280;47991;42.974;12.082;2023-09-07T12:17:42;97858.76;;;28.78;34.33
62038;BME280;47991;42.974;12.082;2023-09-07T12:20:10;97853.83;;;28.67;34.72
62038;BME280;47991;42.974;12.082;2023-09-07T12:22:39;97858.80;;;28.72;34.36
62038;BME280;47991;42.974;12.082;2023-09-07T12:25:07;97853.65;;;28.46;34.80
62038;BME280;47991;42.974;12.082;2023-09-07T12:27:34;97849.23;;;28.42;35.22
62038;BME280;47991;42.974;12.082;2023-09-07T12:30:02;97850.70;;;28.59;34.82
62038;BME280;47991;42.974;12.082;2023-09-07T12:32:32;97850.13;;;28.75;35.06
62038;BME280;47991;42.974;12.082;2023-09-07T12:35:00;97844.17;;;29.14;34.59
62038;BME280;47991;42.974;12.082;2023-09-07T12:37:27;97841.72;;;29.57;33.76
62038;BME280;47991;42.974;12.082;2023-09-07T12:39:54;97838.70;;;29.91;33.39
62038;BME280;47991;42.974;12.082;2023-09-07T12:42:21;97840.23;;;30.04;33.03
62038;BME280;47991;42.974;12.082;2023-09-07T12:44:48;97836.67;;;30.00;32.77
62038;BME280;47991;42.974;12.082;2023-09-07T12:47:15;97839.54;;;29.91;32.30
62038;BME280;47991;42.974;12.082;2023-09-07T12:49:42;97836.34;;;29.96;32.92
62038;BME280;47991;42.974;12.082;2023-09-07T12:52:09;97831.93;;;29.89;33.08
62038;BME280;47991;42.974;12.082;2023-09-07T12:54:38;97829.75;;;29.63;33.33
62038;BME280;47991;42.974;12.082;2023-09-07T12:57:05;97830.58;;;29.18;34.14